Time;durP1;ratioP1;P1;durP2;ratioP2;P2;SDS_P1;SDS_P2;PMS_P1;PMS_P2;Temp;Humidity;BMP_temperature;BMP_pressure;BME280_temperature;BME280_humidity;BME280_pressure;Samples;Min_cycle;Max_cycle;Signal;HPM_P1;HPM_P2
2023/12/17 00:02:12;;;;;;;10.07;2.60;;;25.90;99.90;;;;;;4994856;28;20179;-70
2023/12/17 00:04:39;;;;;;;17.87;3.30;;;25.80;99.90;;;;;;4994812;28;20190;-70
2023/12/17 00:07:07;;;;;;;13.97;3.30;;;25.60;99.90;;;;;;4994027;28;20193;-70
2023/12/17 00:09:34;;;;;;;11.67;2.63;;;25.70;99.90;;;;;;4994297;28;20285;-69
2023/12/17 00:12:01;;;;;;;11.67;2.47;;;26.50;99.90;;;;;;4994606;28;20170;-69
2023/12/17 00:14:29;;;;;;;10.70;2.83;;;27.20;99.90;;;;;;4993203;28;20641;-69
2023/12/17 00:16:56;;;;;;;9.90;2.30;;;28.00;99.90;;;;;;4994315;28;20190;-71
2023/12/17 00:19:23;;;;;;;10.00;2.40;;;27.60;99.90;;;;;;4976768;28;20700;-72
2023/12/17 00:21:50;;;;;;;15.30;2.57;;;27.60;99.90;;;;;;4993988;28;20546;-71
2023/12/17 00:24:18;;;;;;;9.00;2.23;;;28.00;99.90;;;;;;4994020;28;20719;-72
2023/12/17 00:26:45;;;;;;;9.37;2.27;;;28.00;99.90;;;;;;4994015;28;20182;-71
2023/12/17 00:29:13;;;;;;;7.93;2.20;;;28.40;99.90;;;;;;4993633;28;20652;-70
2023/12/17 00:38:24;;;;;;;12.10;2.93;;;31.10;99.90;;;;;;4993606;28;20820;-68
2023/12/17 00:40:51;;;;;;;10.40;2.00;;;31.10;99.90;;;;;;4993866;28;20652;-70
2023/12/17 00:43:19;;;;;;;12.27;2.35;;;31.10;99.90;;;;;;4993882;28;20663;-69
2023/12/17 00:45:46;;;;;;;7.78;1.95;;;30.70;99.90;;;;;;4976941;28;20229;-69
2023/12/17 00:48:13;;;;;;;9.82;2.22;;;30.60;99.90;;;;;;4995350;28;20182;-71
2023/12/17 00:50:41;;;;;;;6.70;2.10;;;31.00;99.90;;;;;;4994678;28;20175;-69
2023/12/17 00:53:08;;;;;;;12.32;2.42;;;31.10;99.90;;;;;;4995282;28;20187;-69
2023/12/17 00:55:35;;;;;;;12.80;2.50;;;30.80;99.90;;;;;;4994147;28;20245;-70
2023/12/17 00:58:02;;;;;;;12.90;2.73;;;29.90;99.90;;;;;;4993252;28;20608;-68
2023/12/17 01:00:30;;;;;;;8.52;2.20;;;29.90;99.90;;;;;;4993650;28;20193;-71
2023/12/17 01:02:57;;;;;;;10.43;2.53;;;30.40;99.90;;;;;;4993802;28;20182;-69
2023/12/17 01:05:24;;;;;;;14.90;2.90;;;30.00;99.90;;;;;;4993375;28;20191;-69
2023/12/17 01:07:51;;;;;;;9.80;2.20;;;30.00;99.90;;;;;;4993805;28;20185;-69
2023/12/17 01:10:19;;;;;;;13.32;2.30;;;30.40;99.90;;;;;;4993556;28;20186;-70
2023/12/17 01:12:46;;;;;;;7.35;2.03;;;30.70;99.90;;;;;;4993322;28;20167;-68
2023/12/17 01:15:13;;;;;;;10.33;2.30;;;30.50;99.90;;;;;;4993727;28;20176;-68
2023/12/17 01:17:41;;;;;;;5.53;1.98;;;29.90;99.90;;;;;;4993442;28;20235;-69
2023/12/17 01:20:08;;;;;;;11.17;2.10;;;29.30;99.90;;;;;;4992832;28;20222;-69
2023/12/17 01:22:36;;;;;;;8.80;2.77;;;29.20;99.90;;;;;;4993240;28;20241;-70
2023/12/17 01:25:03;;;;;;;11.17;2.40;;;28.90;99.90;;;;;;4993138;28;20190;-69
2023/12/17 01:27:30;;;;;;;12.40;2.77;;;28.80;99.90;;;;;;4975319;28;20236;-70
2023/12/17 01:29:58;;;;;;;6.23;2.27;;;29.40;99.90;;;;;;4992721;28;20179;-69
2023/12/17 01:32:25;;;;;;;10.30;2.00;;;30.00;99.90;;;;;;4993200;28;20182;-70
2023/12/17 01:34:53;;;;;;;7.70;2.47;;;30.70;99.90;;;;;;4992545;28;20171;-69
2023/12/17 01:37:20;;;;;;;9.35;2.20;;;31.50;99.90;;;;;;4993123;28;20254;-70
2023/12/17 01:39:47;;;;;;;8.90;2.30;;;31.90;99.90;;;;;;4992644;28;20214;-71
2023/12/17 01:42:15;;;;;;;12.30;2.53;;;31.40;99.90;;;;;;4992782;28;20257;-70
2023/12/17 01:44:42;;;;;;;10.18;2.95;;;30.50;99.90;;;;;;4993033;28;20175;-69
2023/12/17 01:47:10;;;;;;;12.60;2.57;;;29.70;99.90;;;;;;4993102;28;20171;-69
2023/12/17 01:49:37;;;;;;;7.97;1.93;;;29.20;99.90;;;;;;4992093;28;20183;-70
2023/12/17 01:52:05;;;;;;;8.03;1.93;;;29.00;99.90;;;;;;4992974;28;20179;-70
2023/12/17 01:54:34;;;;;;;7.40;2.07;;;29.40;99.90;;;;;;4992636;28;20183;-68
2023/12/17 01:57:02;;;;;;;11.87;2.80;;;29.80;99.90;;;;;;4992284;28;20304;-69
2023/12/17 01:59:31;;;;;;;8.93;2.17;;;29.30;99.90;;;;;;4992346;28;20222;-68
2023/12/17 02:01:59;;;;;;;9.47;2.27;;;28.60;99.90;;;;;;4992555;28;20187;-69
2023/12/17 02:04:27;;;;;;;15.17;2.27;;;28.10;99.90;;;;;;4990911;28;20190;-69
2023/12/17 02:06:54;;;;;;;6.50;2.07;;;27.80;99.90;;;;;;4991865;28;20663;-69
2023/12/17 02:09:21;;;;;;;8.33;2.20;;;27.50;99.90;;;;;;4991396;28;20297;-69
2023/12/17 02:11:49;;;;;;;8.97;2.83;;;27.40;99.90;;;;;;4992251;28;20254;-70
2023/12/17 02:14:16;;;;;;;9.87;2.27;;;27.40;99.90;;;;;;4992403;28;20179;-69
2023/12/17 02:16:43;;;;;;;12.40;2.40;;;27.50;99.90;;;;;;4973212;28;20176;-71
2023/12/17 02:19:11;;;;;;;12.03;2.50;;;27.40;99.90;;;;;;4986228;28;20707;-69
2023/12/17 02:21:38;;;;;;;13.13;2.10;;;27.40;99.90;;;;;;4992382;28;20718;-71
2023/12/17 02:24:05;;;;;;;9.47;2.37;;;27.70;99.90;;;;;;4974999;28;20298;-72
2023/12/17 02:26:33;;;;;;;8.43;2.47;;;27.70;99.90;;;;;;4991724;28;20229;-70
2023/12/17 02:29:00;;;;;;;8.57;2.03;;;27.80;99.90;;;;;;4992124;28;20191;-70
2023/12/17 02:31:27;;;;;;;14.80;2.57;;;27.80;99.90;;;;;;4974846;28;20182;-71
2023/12/17 02:33:54;;;;;;;6.20;1.67;;;27.90;99.90;;;;;;4991513;28;20550;-72
2023/12/17 02:36:22;;;;;;;10.73;2.33;;;28.00;99.90;;;;;;4991715;28;20186;-70
2023/12/17 02:38:49;;;;;;;13.70;2.63;;;28.00;99.90;;;;;;4990937;28;20353;-70
2023/12/17 02:41:17;;;;;;;11.33;2.57;;;27.80;99.90;;;;;;4972347;28;20195;-71
2023/12/17 02:47:06;;;;;;;11.03;2.40;;;28.10;99.90;;;;;;4990876;28;20218;-70
2023/12/17 02:49:35;;;;;;;11.17;2.50;;;28.10;99.90;;;;;;4979438;28;20194;-72
2023/12/17 02:52:03;;;;;;;6.63;2.33;;;28.30;99.90;;;;;;4992124;28;20629;-70
2023/12/17 02:54:30;;;;;;;9.23;2.20;;;28.80;99.90;;;;;;4992002;28;20233;-71
2023/12/17 02:56:57;;;;;;;14.10;2.90;;;28.90;99.90;;;;;;4991465;28;20317;-72
2023/12/17 02:59:25;;;;;;;9.37;2.60;;;29.00;99.90;;;;;;4991444;28;20214;-71
2023/12/17 03:01:52;;;;;;;8.33;2.83;;;29.00;99.90;;;;;;4991800;28;20717;-71
2023/12/17 03:04:19;;;;;;;6.60;2.20;;;29.80;99.90;;;;;;4974419;28;20193;-69
2023/12/17 03:06:47;;;;;;;13.47;2.43;;;29.90;99.90;;;;;;4991928;28;20632;-70
2023/12/17 03:09:15;;;;;;;10.40;1.87;;;30.00;99.90;;;;;;4991824;28;20190;-71
2023/12/17 03:11:43;;;;;;;7.77;2.27;;;29.70;99.90;;;;;;4991610;28;20269;-69
2023/12/17 03:14:13;;;;;;;8.10;1.97;;;29.70;99.90;;;;;;4991714;28;20256;-69
2023/12/17 03:16:42;;;;;;;7.03;2.30;;;29.80;99.90;;;;;;4992816;28;20186;-70
2023/12/17 03:19:10;;;;;;;10.27;2.70;;;30.40;99.90;;;;;;4993092;28;20218;-69
2023/12/17 03:21:37;;;;;;;9.50;2.30;;;30.40;99.90;;;;;;4975804;28;20553;-69
2023/12/17 03:24:05;;;;;;;8.70;2.20;;;30.10;99.90;;;;;;4993264;28;20586;-71
2023/12/17 03:26:33;;;;;;;6.97;1.97;;;30.20;99.90;;;;;;4973882;28;20191;-71
2023/12/17 03:29:00;;;;;;;9.27;2.00;;;30.30;99.90;;;;;;4981110;28;20186;-70
2023/12/17 03:31:28;;;;;;;6.03;1.90;;;30.20;99.90;;;;;;4993399;28;20237;-70
2023/12/17 03:33:55;;;;;;;5.20;2.10;;;30.30;99.90;;;;;;4993111;28;20233;-71
2023/12/17 03:36:22;;;;;;;16.03;2.90;;;30.50;99.90;;;;;;4993363;28;20179;-72
2023/12/17 03:38:49;;;;;;;15.10;3.00;;;30.50;99.90;;;;;;4975292;28;20203;-70
2023/12/17 03:41:28;;;;;;;21.98;3.13;;;30.60;99.90;;;;;;4992887;28;20587;-70
2023/12/17 03:43:56;;;;;;;33.90;5.27;;;30.60;99.90;;;;;;4992958;28;20673;-70
2023/12/17 03:46:25;;;;;;;21.70;3.05;;;30.70;99.90;;;;;;4975452;28;20186;-71
2023/12/17 03:48:53;;;;;;;13.30;2.20;;;30.50;99.90;;;;;;4992970;28;20245;-71
2023/12/17 03:51:20;;;;;;;22.20;3.57;;;30.00;99.90;;;;;;4995318;28;20664;-70
2023/12/17 03:53:48;;;;;;;10.70;2.57;;;30.00;99.90;;;;;;4996655;28;20179;-72
2023/12/17 03:56:16;;;;;;;8.47;1.90;;;30.00;99.90;;;;;;4997857;28;20229;-69
2023/12/17 03:58:43;;;;;;;12.83;2.43;;;30.20;99.90;;;;;;4972659;28;20286;-71
2023/12/17 04:01:11;;;;;;;20.27;3.43;;;30.10;99.90;;;;;;4994420;28;20694;-71
2023/12/17 04:03:39;;;;;;;13.63;2.50;;;30.10;99.90;;;;;;4994566;28;20205;-71
2023/12/17 04:09:28;;;;;;;8.70;2.33;;;30.10;99.90;;;;;;4994041;28;20221;-73
2023/12/17 04:11:56;;;;;;;7.40;2.03;;;30.30;99.90;;;;;;4994734;28;20185;-71
2023/12/17 04:14:23;;;;;;;12.30;2.30;;;30.40;99.90;;;;;;4977269;28;20621;-70
2023/12/17 04:16:50;;;;;;;6.83;2.20;;;30.50;99.90;;;;;;4994839;28;20664;-72
2023/12/17 04:19:18;;;;;;;8.02;2.58;;;30.50;99.90;;;;;;4995454;28;20264;-73
2023/12/17 04:21:45;;;;;;;7.63;1.90;;;30.50;99.90;;;;;;4994797;28;21014;-70
2023/12/17 04:24:12;;;;;;;9.43;1.97;;;30.10;99.90;;;;;;4995066;28;20210;-71
2023/12/17 04:26:40;;;;;;;8.60;2.00;;;29.90;99.90;;;;;;4977537;28;20183;-73
2023/12/17 04:29:07;;;;;;;8.23;2.13;;;30.00;99.90;;;;;;4994296;28;20713;-70
2023/12/17 04:31:34;;;;;;;8.83;1.97;;;30.20;99.90;;;;;;4994779;28;20182;-73
2023/12/17 04:34:02;;;;;;;7.37;1.77;;;30.20;99.90;;;;;;4994513;28;20265;-71
2023/12/17 04:36:29;;;;;;;8.17;1.97;;;30.20;99.90;;;;;;4984147;28;20193;-71
2023/12/17 04:38:56;;;;;;;7.50;1.93;;;30.00;99.90;;;;;;4976939;28;20278;-71
2023/12/17 04:41:24;;;;;;;8.73;2.17;;;30.30;99.90;;;;;;4994042;28;20182;-70
2023/12/17 04:43:51;;;;;;;13.33;2.23;;;30.10;99.90;;;;;;4994214;28;20492;-69
2023/12/17 04:46:19;;;;;;;10.60;2.67;;;30.50;99.90;;;;;;4995044;28;20189;-73
2023/12/17 04:48:47;;;;;;;7.90;1.60;;;30.60;99.90;;;;;;4994466;28;20265;-69
2023/12/17 04:51:15;;;;;;;9.37;2.23;;;30.00;99.90;;;;;;4993501;28;20236;-71
2023/12/17 04:53:43;;;;;;;8.87;2.40;;;29.90;99.90;;;;;;4994420;28;20175;-70
2023/12/17 04:56:10;;;;;;;13.67;2.67;;;29.40;99.90;;;;;;4994137;28;20183;-70
2023/12/17 04:58:37;;;;;;;6.53;1.80;;;29.30;99.90;;;;;;4993223;28;20337;-70
2023/12/17 05:01:05;;;;;;;8.10;1.97;;;28.90;99.90;;;;;;4993908;28;20274;-71
2023/12/17 05:03:32;;;;;;;10.17;1.80;;;28.60;99.90;;;;;;4993703;28;20179;-72
2023/12/17 05:05:59;;;;;;;7.00;2.17;;;28.60;99.90;;;;;;4994163;28;20182;-71
2023/12/17 05:08:27;;;;;;;6.73;1.90;;;28.60;99.90;;;;;;4994023;28;20198;-70
2023/12/17 05:10:54;;;;;;;10.20;2.20;;;28.80;99.90;;;;;;4993744;28;20516;-70
2023/12/17 05:13:21;;;;;;;5.63;1.90;;;28.30;99.90;;;;;;4994304;28;20183;-69
2023/12/17 05:15:49;;;;;;;9.43;1.97;;;28.00;99.90;;;;;;4993807;28;20535;-69
2023/12/17 05:18:16;;;;;;;8.23;2.20;;;28.10;99.90;;;;;;4993501;28;20186;-69
2023/12/17 05:20:45;;;;;;;8.27;1.93;;;28.00;99.90;;;;;;4993261;28;20196;-71
2023/12/17 05:23:13;;;;;;;9.40;2.10;;;27.80;99.90;;;;;;4993392;28;20193;-68
2023/12/17 05:25:43;;;;;;;6.27;2.20;;;27.80;99.90;;;;;;4993639;28;20266;-69
2023/12/17 05:28:11;;;;;;;13.67;2.23;;;27.90;99.90;;;;;;4993414;28;20179;-69
2023/12/17 05:30:39;;;;;;;8.13;1.90;;;28.10;99.90;;;;;;4993536;28;20193;-72
2023/12/17 05:33:07;;;;;;;11.97;2.13;;;28.10;99.90;;;;;;4993392;28;20621;-69
2023/12/17 05:35:34;;;;;;;7.33;2.10;;;28.10;99.90;;;;;;4993969;28;20213;-69
2023/12/17 05:38:01;;;;;;;11.10;2.27;;;28.00;99.90;;;;;;4974935;28;20667;-71
2023/12/17 05:40:29;;;;;;;8.20;2.07;;;27.80;99.90;;;;;;4992882;28;20190;-71
2023/12/17 05:42:56;;;;;;;8.10;2.33;;;27.80;99.90;;;;;;4992832;28;20182;-70
2023/12/17 05:45:23;;;;;;;6.10;1.70;;;27.60;99.90;;;;;;4993442;28;20175;-69
2023/12/17 05:47:51;;;;;;;8.60;2.37;;;27.50;99.90;;;;;;4992851;28;20263;-71
2023/12/17 05:50:18;;;;;;;8.57;1.83;;;27.40;99.90;;;;;;4992617;28;20241;-71
2023/12/17 05:52:45;;;;;;;8.50;2.10;;;27.20;99.90;;;;;;4993519;28;20698;-71
2023/12/17 05:55:13;;;;;;;11.37;2.10;;;27.10;99.90;;;;;;4993055;28;20179;-71
2023/12/17 05:57:42;;;;;;;14.80;3.00;;;27.20;99.90;;;;;;4994060;28;21110;-70
2023/12/17 06:00:10;;;;;;;9.77;2.67;;;27.10;99.90;;;;;;4992404;28;20214;-70
2023/12/17 06:02:37;;;;;;;10.83;2.87;;;26.80;99.90;;;;;;4992565;28;20273;-69
2023/12/17 06:05:05;;;;;;;9.97;2.43;;;26.60;99.90;;;;;;4992415;28;20597;-69
2023/12/17 06:07:32;;;;;;;8.20;2.17;;;26.60;99.90;;;;;;4993370;28;20257;-72
2023/12/17 06:10:00;;;;;;;10.27;2.27;;;26.50;99.90;;;;;;4993461;28;20187;-71
2023/12/17 06:12:27;;;;;;;10.40;2.27;;;26.40;99.90;;;;;;4992859;28;20179;-70
2023/12/17 06:18:17;;;;;;;13.57;2.70;;;26.60;99.90;;;;;;4993395;28;20196;-71
2023/12/17 06:20:44;;;;;;;11.07;2.50;;;26.50;99.90;;;;;;4993867;28;20183;-71
2023/12/17 06:23:12;;;;;;;11.60;2.50;;;26.70;99.90;;;;;;4993883;28;20179;-72
2023/12/17 06:25:39;;;;;;;9.77;2.73;;;26.60;99.90;;;;;;4993393;28;20636;-72
2023/12/17 06:28:06;;;;;;;13.63;2.83;;;26.60;99.90;;;;;;4993645;28;20598;-73
2023/12/17 06:30:35;;;;;;;10.40;2.17;;;26.20;99.90;;;;;;4993722;28;20237;-71
2023/12/17 06:36:24;;;;;;;12.17;2.63;;;25.90;99.90;;;;;;4993010;28;20236;-72
2023/12/17 06:38:51;;;;;;;13.37;2.17;;;26.10;99.90;;;;;;4993540;28;20210;-70
2023/12/17 06:41:19;;;;;;;11.13;2.70;;;26.10;99.90;;;;;;4993819;28;20186;-69
2023/12/17 06:43:46;;;;;;;10.83;2.77;;;26.00;99.90;;;;;;4994975;28;20683;-71
2023/12/17 06:46:17;;;;;;;12.17;2.63;;;26.00;99.90;;;;;;4994953;28;20636;-69
2023/12/17 06:48:47;;;;;;;11.57;3.03;;;26.00;99.90;;;;;;4994849;28;20233;-69
2023/12/17 06:51:15;;;;;;;20.67;3.33;;;26.00;99.90;;;;;;4972909;28;20540;-69
2023/12/17 06:53:42;;;;;;;12.70;2.90;;;25.90;99.90;;;;;;4993874;28;20186;-72
2023/12/17 06:59:31;;;;;;;19.90;3.40;;;25.70;99.90;;;;;;4990706;28;20316;-70
2023/12/17 07:01:58;;;;;;;13.17;2.50;;;25.70;99.90;;;;;;4992414;28;20193;-70
2023/12/17 07:04:26;;;;;;;9.93;2.30;;;25.60;99.90;;;;;;4992542;28;20193;-69
2023/12/17 07:06:53;;;;;;;13.77;3.10;;;25.60;99.90;;;;;;4991878;28;20249;-69
2023/12/17 07:09:20;;;;;;;15.70;3.53;;;25.60;99.90;;;;;;4991822;28;20256;-70
2023/12/17 07:11:47;;;;;;;11.93;2.90;;;25.60;99.90;;;;;;4991820;28;20194;-69
2023/12/17 07:14:15;;;;;;;8.93;2.37;;;25.70;99.90;;;;;;4991330;28;20629;-69
2023/12/17 07:16:42;;;;;;;13.23;3.70;;;25.70;99.90;;;;;;4992119;28;20193;-69
2023/12/17 07:19:09;;;;;;;9.83;2.30;;;25.60;99.90;;;;;;4991450;28;20214;-69
2023/12/17 07:21:37;;;;;;;10.70;2.43;;;25.60;99.90;;;;;;4991408;28;20827;-69
2023/12/17 07:24:04;;;;;;;8.40;2.03;;;25.60;99.90;;;;;;4992551;28;20234;-69
2023/12/17 07:26:31;;;;;;;13.40;3.13;;;25.60;99.90;;;;;;4995440;28;20170;-70
2023/12/17 07:28:59;;;;;;;13.07;3.10;;;25.70;99.90;;;;;;4977888;28;20191;-69
2023/12/17 07:31:26;;;;;;;11.33;2.90;;;25.70;99.90;;;;;;4977956;28;20189;-69
2023/12/17 07:33:54;;;;;;;13.40;3.20;;;25.70;99.90;;;;;;4995326;28;20664;-69
2023/12/17 07:36:21;;;;;;;9.70;2.50;;;25.70;99.90;;;;;;4994108;28;20206;-68
2023/12/17 07:38:49;;;;;;;15.40;2.90;;;25.40;99.90;;;;;;4994846;28;20276;-69
2023/12/17 07:41:16;;;;;;;15.60;2.80;;;25.50;99.90;;;;;;4995612;28;20171;-68
2023/12/17 07:43:43;;;;;;;14.90;2.93;;;25.50;99.90;;;;;;4993866;28;20668;-70
2023/12/17 07:46:11;;;;;;;13.03;3.63;;;25.50;99.90;;;;;;4994945;28;20182;-71
2023/12/17 07:48:38;;;;;;;10.70;2.27;;;25.60;99.90;;;;;;4995241;28;20179;-69
2023/12/17 07:51:05;;;;;;;11.37;3.03;;;25.50;99.90;;;;;;4994618;28;20183;-69
2023/12/17 07:53:33;;;;;;;9.73;2.53;;;25.40;99.90;;;;;;4994786;28;20241;-69
2023/12/17 07:56:00;;;;;;;12.13;2.80;;;25.30;99.90;;;;;;4995296;28;20171;-70
2023/12/17 07:58:30;;;;;;;8.47;2.30;;;25.20;99.90;;;;;;4976449;28;20262;-69
2023/12/17 08:00:58;;;;;;;17.63;2.87;;;25.00;99.90;;;;;;4977530;28;20179;-70
2023/12/17 08:03:25;;;;;;;11.37;2.40;;;25.10;99.90;;;;;;4994623;28;20229;-70
2023/12/17 08:05:52;;;;;;;15.60;2.87;;;25.10;99.90;;;;;;4976880;28;20290;-70
2023/12/17 08:08:20;;;;;;;15.93;2.60;;;25.10;99.90;;;;;;4994958;28;20267;-70
2023/12/17 08:10:48;;;;;;;14.67;3.27;;;25.00;99.90;;;;;;4994771;28;20178;-70
2023/12/17 08:13:15;;;;;;;15.97;2.93;;;25.00;99.90;;;;;;4994424;28;20174;-69
2023/12/17 08:15:42;;;;;;;10.77;2.87;;;25.10;99.90;;;;;;4994396;28;20192;-70
2023/12/17 08:18:10;;;;;;;14.27;3.10;;;25.10;99.90;;;;;;4993606;28;20183;-69
2023/12/17 08:20:37;;;;;;;11.80;2.77;;;25.10;99.90;;;;;;4991416;28;20215;-69
2023/12/17 08:23:04;;;;;;;12.13;2.63;;;25.00;99.90;;;;;;4994447;28;20183;-70
2023/12/17 08:25:33;;;;;;;19.40;2.93;;;24.90;99.90;;;;;;4994725;28;20179;-71
2023/12/17 08:28:00;;;;;;;9.47;2.50;;;24.80;99.90;;;;;;4993872;28;20207;-70
2023/12/17 08:30:28;;;;;;;12.03;2.57;;;24.60;99.90;;;;;;4975099;28;20175;-71
2023/12/17 08:32:55;;;;;;;12.53;2.73;;;24.50;99.90;;;;;;4973327;28;20205;-70
2023/12/17 08:35:22;;;;;;;16.43;3.13;;;24.50;99.90;;;;;;4975978;28;20182;-70
2023/12/17 08:37:50;;;;;;;15.17;2.60;;;24.50;99.90;;;;;;4993921;28;21067;-71
2023/12/17 08:40:17;;;;;;;14.20;2.70;;;24.50;99.90;;;;;;4993361;28;20775;-71
2023/12/17 08:42:44;;;;;;;13.83;2.93;;;24.50;99.90;;;;;;4993954;28;20175;-70
2023/12/17 08:45:12;;;;;;;15.10;3.37;;;24.50;99.90;;;;;;4993868;28;20256;-71
2023/12/17 08:47:39;;;;;;;13.03;2.93;;;24.50;99.90;;;;;;4993594;28;20182;-70
2023/12/17 08:50:07;;;;;;;9.20;2.50;;;24.40;99.90;;;;;;4993722;28;20268;-71
2023/12/17 08:52:36;;;;;;;17.40;3.07;;;24.40;99.90;;;;;;4976478;28;20183;-72
2023/12/17 08:55:04;;;;;;;10.83;2.40;;;24.40;99.90;;;;;;4993826;28;20191;-70
2023/12/17 08:57:31;;;;;;;12.10;2.80;;;24.40;99.90;;;;;;4993489;28;20218;-70
2023/12/17 08:59:58;;;;;;;9.97;2.17;;;24.30;99.90;;;;;;4993370;28;20317;-71
2023/12/17 09:02:26;;;;;;;20.00;3.13;;;24.30;99.90;;;;;;4994070;28;20171;-71
2023/12/17 09:04:54;;;;;;;15.03;2.77;;;24.20;99.90;;;;;;4993167;28;20249;-72
2023/12/17 09:07:21;;;;;;;9.93;2.70;;;24.10;99.90;;;;;;4993013;28;20201;-71
2023/12/17 09:09:48;;;;;;;15.03;2.70;;;24.10;99.90;;;;;;4993712;28;20629;-70
2023/12/17 09:12:16;;;;;;;14.93;2.70;;;24.10;99.90;;;;;;4975336;28;20187;-70
2023/12/17 09:14:44;;;;;;;11.60;2.67;;;24.00;99.90;;;;;;4993471;28;20198;-70
2023/12/17 09:17:11;;;;;;;8.67;2.40;;;24.00;99.90;;;;;;4993821;28;20636;-70
2023/12/17 09:19:39;;;;;;;15.43;2.87;;;23.90;99.90;;;;;;4992791;28;20269;-70
2023/12/17 09:22:06;;;;;;;15.57;2.53;;;23.90;99.90;;;;;;4993790;28;20261;-70
2023/12/17 09:24:34;;;;;;;10.27;2.47;;;23.90;99.90;;;;;;4993536;28;20562;-70
2023/12/17 09:27:03;;;;;;;10.93;2.57;;;23.90;99.90;;;;;;4992985;28;20178;-71
2023/12/17 09:29:30;;;;;;;15.43;2.53;;;23.80;99.90;;;;;;4993568;28;20179;-72
2023/12/17 09:31:57;;;;;;;11.03;2.20;;;23.80;99.90;;;;;;4993546;28;20182;-72
2023/12/17 09:34:25;;;;;;;12.27;2.93;;;23.80;99.90;;;;;;4993299;28;20605;-72
2023/12/17 09:36:52;;;;;;;10.77;2.30;;;23.70;99.90;;;;;;4993580;28;20552;-70
2023/12/17 09:39:19;;;;;;;11.13;2.47;;;23.60;99.90;;;;;;4993810;28;20274;-70
2023/12/17 09:41:47;;;;;;;13.00;2.70;;;23.60;99.90;;;;;;4992375;28;20528;-69
2023/12/17 09:44:14;;;;;;;10.90;2.60;;;23.70;99.90;;;;;;4992991;28;20186;-72
2023/12/17 09:46:42;;;;;;;12.30;2.43;;;23.60;99.90;;;;;;4993167;28;20245;-68
2023/12/17 09:49:09;;;;;;;10.00;2.83;;;23.50;99.90;;;;;;4991968;28;20217;-71
2023/12/17 09:51:41;;;;;;;18.37;3.33;;;23.50;99.90;;;;;;4975515;28;20187;-72
2023/12/17 09:54:08;;;;;;;13.27;2.70;;;23.40;99.90;;;;;;4992136;28;20575;-70
2023/12/17 09:56:36;;;;;;;12.53;2.67;;;23.40;99.90;;;;;;4992719;28;20182;-70
2023/12/17 09:59:03;;;;;;;12.20;2.50;;;23.40;99.90;;;;;;4992551;28;20257;-71
2023/12/17 10:01:30;;;;;;;11.77;2.30;;;23.30;99.90;;;;;;4992777;28;20190;-70
2023/12/17 10:03:58;;;;;;;10.67;2.83;;;23.30;99.90;;;;;;4992921;28;20174;-70
2023/12/17 10:06:25;;;;;;;8.90;2.37;;;23.30;99.90;;;;;;4994072;28;20201;-71
2023/12/17 10:08:56;;;;;;;14.00;2.43;;;23.30;99.90;;;;;;4994111;28;20194;-70
2023/12/17 10:11:26;;;;;;;12.90;2.20;;;23.20;99.90;;;;;;4994095;28;20186;-70
2023/12/17 10:13:53;;;;;;;13.30;2.90;;;23.20;99.90;;;;;;4993945;28;20269;-71
2023/12/17 10:16:22;;;;;;;13.60;2.67;;;23.20;99.90;;;;;;4994265;28;20175;-71
2023/12/17 10:18:52;;;;;;;13.13;2.40;;;23.20;99.90;;;;;;4993616;28;20210;-71
2023/12/17 10:21:19;;;;;;;10.27;2.57;;;23.20;99.90;;;;;;4994312;28;20229;-70
2023/12/17 10:23:48;;;;;;;12.00;2.10;;;23.20;99.90;;;;;;4994108;28;20174;-70
2023/12/17 10:26:16;;;;;;;9.47;2.23;;;23.20;99.90;;;;;;4994184;28;20263;-71
2023/12/17 10:28:48;;;;;;;13.13;2.20;;;23.20;99.90;;;;;;4993819;28;20178;-70
2023/12/17 10:31:16;;;;;;;13.03;3.23;;;23.20;99.90;;;;;;4993814;28;20306;-71
2023/12/17 10:34:02;;;;;;;9.67;2.50;;;23.20;99.90;;;;;;4993992;28;20225;-70
2023/12/17 10:36:29;;;;;;;10.23;2.00;;;23.20;99.90;;;;;;4993957;28;20270;-70
2023/12/17 10:38:59;;;;;;;9.67;2.10;;;23.10;99.90;;;;;;4993610;28;20277;-70
2023/12/17 10:41:29;;;;;;;15.30;2.37;;;23.10;99.90;;;;;;4993928;28;20193;-70
2023/12/17 10:43:58;;;;;;;5.30;1.83;;;23.00;99.90;;;;;;4993941;28;20265;-71
2023/12/17 10:46:27;;;;;;;8.83;3.10;;;23.00;99.90;;;;;;4993722;28;20175;-71
2023/12/17 10:48:54;;;;;;;9.03;2.17;;;22.90;99.90;;;;;;4993247;28;20200;-70
2023/12/17 10:51:24;;;;;;;10.77;2.30;;;23.00;99.90;;;;;;4993634;28;20190;-69
2023/12/17 10:53:52;;;;;;;18.20;2.40;;;22.90;99.90;;;;;;4993868;28;20183;-71
2023/12/17 10:56:20;;;;;;;13.37;2.33;;;22.90;99.90;;;;;;4993678;28;20185;-71
2023/12/17 10:58:48;;;;;;;13.20;2.40;;;22.90;99.90;;;;;;4993184;28;20577;-69
2023/12/17 11:01:17;;;;;;;16.10;2.43;;;22.90;99.90;;;;;;4997594;28;20241;-71
2023/12/17 11:03:45;;;;;;;10.80;2.93;;;22.90;99.90;;;;;;4997755;28;20178;-69
2023/12/17 11:06:14;;;;;;;12.67;3.10;;;22.90;99.90;;;;;;4997553;28;20201;-70
2023/12/17 11:08:42;;;;;;;9.33;2.10;;;23.00;99.90;;;;;;4997726;28;20185;-71
2023/12/17 11:11:10;;;;;;;16.73;2.50;;;23.10;99.90;;;;;;4997734;28;20182;-68
2023/12/17 11:13:37;;;;;;;12.43;2.80;;;23.20;99.90;;;;;;4997547;28;20654;-70
2023/12/17 11:16:24;;;;;;;16.33;3.10;;;23.20;99.90;;;;;;4997826;28;20531;-70
2023/12/17 11:18:52;;;;;;;12.60;2.93;;;23.20;99.90;;;;;;4997488;28;20617;-70
2023/12/17 11:21:22;;;;;;;9.43;2.50;;;23.20;99.90;;;;;;4997316;28;20206;-70
2023/12/17 11:23:53;;;;;;;9.43;2.60;;;23.20;99.90;;;;;;4997307;28;20521;-70
2023/12/17 11:26:21;;;;;;;12.67;3.33;;;23.20;99.90;;;;;;4997287;28;20183;-69
2023/12/17 11:28:49;;;;;;;9.27;2.10;;;23.20;99.90;;;;;;4979697;28;20189;-69
2023/12/17 11:31:17;;;;;;;17.17;3.10;;;23.20;99.90;;;;;;4997374;28;20190;-70
2023/12/17 11:33:45;;;;;;;12.77;2.60;;;23.10;99.90;;;;;;4997296;28;20174;-70
2023/12/17 11:36:14;;;;;;;14.77;3.57;;;23.10;99.90;;;;;;4997138;28;20265;-70
2023/12/17 11:38:41;;;;;;;14.27;2.63;;;23.10;99.90;;;;;;4996915;28;20211;-69
2023/12/17 11:41:09;;;;;;;10.90;2.63;;;23.00;99.90;;;;;;4979805;28;20182;-69
2023/12/17 11:43:37;;;;;;;14.43;2.67;;;23.10;99.90;;;;;;4997064;28;20186;-69
2023/12/17 11:46:09;;;;;;;11.23;2.33;;;23.10;99.90;;;;;;4997127;28;20182;-69
2023/12/17 11:48:37;;;;;;;8.23;2.23;;;23.10;99.90;;;;;;4996944;28;20179;-69
2023/12/17 11:51:04;;;;;;;11.43;2.87;;;23.00;99.90;;;;;;4996814;28;20186;-70
2023/12/17 11:53:32;;;;;;;11.87;3.17;;;23.00;99.90;;;;;;4996784;28;20237;-70
2023/12/17 11:56:03;;;;;;;15.17;2.60;;;23.00;99.90;;;;;;4996696;28;20178;-69
2023/12/17 11:58:31;;;;;;;18.40;2.77;;;22.90;99.90;;;;;;4995539;28;20635;-70
2023/12/17 12:01:11;;;;;;;9.13;3.00;;;22.90;99.90;;;;;;4995328;28;20277;-70
2023/12/17 12:03:41;;;;;;;14.70;2.80;;;22.90;99.90;;;;;;4987784;28;20190;-69
2023/12/17 12:06:10;;;;;;;16.87;2.73;;;22.90;99.90;;;;;;4994685;28;20621;-69
2023/12/17 12:08:45;;;;;;;12.13;2.70;;;22.90;99.90;;;;;;4996469;28;20183;-70
2023/12/17 12:11:18;;;;;;;12.10;2.90;;;22.90;99.90;;;;;;4995371;28;20592;-70
2023/12/17 12:13:48;;;;;;;12.20;6.03;;;22.90;99.90;;;;;;4996373;28;20185;-70
2023/12/17 12:16:17;;;;;;;11.20;3.57;;;22.90;99.90;;;;;;4996744;28;20186;-70
2023/12/17 12:18:45;;;;;;;14.53;4.07;;;22.90;99.90;;;;;;4996490;28;20216;-70
2023/12/17 12:21:21;;;;;;;14.57;3.57;;;22.80;99.90;;;;;;4996393;28;20186;-70
2023/12/17 12:23:57;;;;;;;16.63;3.50;;;22.80;99.90;;;;;;4996382;28;20648;-70
2023/12/17 12:26:26;;;;;;;13.83;2.87;;;22.80;99.90;;;;;;4995800;28;20186;-70
2023/12/17 12:28:58;;;;;;;10.97;2.30;;;22.70;99.90;;;;;;4996218;28;20221;-69
2023/12/17 12:31:27;;;;;;;13.10;3.43;;;22.70;99.90;;;;;;4996859;28;20237;-70
2023/12/17 12:33:59;;;;;;;8.87;2.63;;;22.70;99.90;;;;;;4996883;28;20175;-70
2023/12/17 12:36:41;;;;;;;8.90;2.80;;;22.70;99.90;;;;;;4998567;28;20195;-69
2023/12/17 12:39:08;;;;;;;11.53;2.33;;;22.70;99.90;;;;;;4999120;28;20219;-69
2023/12/17 12:41:42;;;;;;;10.27;2.80;;;22.70;99.90;;;;;;4999179;28;20194;-69
2023/12/17 12:44:15;;;;;;;11.63;2.97;;;22.70;99.90;;;;;;4998040;28;20266;-70
2023/12/17 12:46:46;;;;;;;8.37;2.33;;;22.70;99.90;;;;;;5003754;28;20222;-70
2023/12/17 12:49:17;;;;;;;13.67;3.40;;;22.80;99.90;;;;;;5004136;28;20218;-71
2023/12/17 12:51:45;;;;;;;15.90;3.33;;;22.90;99.90;;;;;;5002934;28;20183;-71
2023/12/17 12:54:12;;;;;;;19.30;2.90;;;22.90;99.90;;;;;;4997653;28;20197;-69
2023/12/17 12:56:40;;;;;;;18.57;3.17;;;22.90;99.90;;;;;;4998344;28;20269;-70
2023/12/17 12:59:08;;;;;;;9.83;2.20;;;23.00;99.90;;;;;;4997255;28;20317;-70
2023/12/17 13:01:36;;;;;;;11.10;2.50;;;23.10;99.90;;;;;;4997332;28;20205;-70
2023/12/17 13:04:03;;;;;;;21.53;3.90;;;23.10;99.90;;;;;;4996479;28;20205;-70
2023/12/17 13:06:35;;;;;;;15.60;3.20;;;23.10;99.90;;;;;;4995612;28;20199;-71
2023/12/17 13:09:04;;;;;;;20.67;4.00;;;23.20;99.90;;;;;;4978195;28;20191;-71